sensor_id;sensor_type;location;lat;lon;timestamp;pressure;altitude;pressure_sealevel;temperature;humidity
30584;BME280;17357;59.404;18.414;2022-10-12T00:01:08;101746.22;;;22.58;96.96
30584;BME280;17357;59.404;18.414;2022-10-12T00:03:34;101743.41;;;22.58;97.02
30584;BME280;17357;59.404;18.414;2022-10-12T00:06:06;101742.94;;;22.56;96.70
30584;BME280;17357;59.404;18.414;2022-10-12T00:08:33;101748.59;;;22.56;97.46
30584;BME280;17357;59.404;18.414;2022-10-12T00:10:59;101749.75;;;22.54;97.50
30584;BME280;17357;59.404;18.414;2022-10-12T00:13:24;101754.25;;;22.56;97.52
30584;BME280;17357;59.404;18.414;2022-10-12T00:15:50;101760.63;;;22.52;97.28
30584;BME280;17357;59.404;18.414;2022-10-12T00:18:15;101759.06;;;22.55;97.70
30584;BME280;17357;59.404;18.414;2022-10-12T00:20:41;101752.59;;;22.54;97.81
30584;BME280;17357;59.404;18.414;2022-10-12T00:23:06;101767.94;;;22.53;97.25
30584;BME280;17357;59.404;18.414;2022-10-12T00:25:38;101766.28;;;22.52;97.29
30584;BME280;17357;59.404;18.414;2022-10-12T00:28:04;101763.47;;;22.52;97.63
30584;BME280;17357;59.404;18.414;2022-10-12T00:30:30;101759.44;;;22.53;97.75
30584;BME280;17357;59.404;18.414;2022-10-12T00:32:56;101768.66;;;22.50;97.54
30584;BME280;17357;59.404;18.414;2022-10-12T00:35:22;101764.16;;;22.49;97.69
30584;BME280;17357;59.404;18.414;2022-10-12T00:37:47;101768.66;;;22.50;97.10
30584;BME280;17357;59.404;18.414;2022-10-12T00:40:13;101773.38;;;22.46;96.92
30584;BME280;17357;59.404;18.414;2022-10-12T00:42:38;101779.47;;;22.48;97.10
30584;BME280;17357;59.404;18.414;2022-10-12T00:45:04;101784.78;;;22.50;97.55
30584;BME280;17357;59.404;18.414;2022-10-12T00:47:34;101788.34;;;22.47;97.15
30584;BME280;17357;59.404;18.414;2022-10-12T00:52:45;101794.34;;;22.45;97.41
30584;BME280;17357;59.404;18.414;2022-10-12T00:55:14;101802.47;;;22.47;97.62
30584;BME280;17357;59.404;18.414;2022-10-12T00:57:42;101793.53;;;22.45;97.88
30584;BME280;17357;59.404;18.414;2022-10-12T01:00:09;101802.00;;;22.45;97.59
30584;BME280;17357;59.404;18.414;2022-10-12T01:02:36;101806.13;;;22.47;98.61
30584;BME280;17357;59.404;18.414;2022-10-12T01:05:03;101814.13;;;22.45;98.00
30584;BME280;17357;59.404;18.414;2022-10-12T01:07:29;101811.31;;;22.45;98.16
30584;BME280;17357;59.404;18.414;2022-10-12T01:09:54;101807.56;;;22.41;97.73
30584;BME280;17357;59.404;18.414;2022-10-12T01:12:20;101813.31;;;22.45;98.03
30584;BME280;17357;59.404;18.414;2022-10-12T01:14:46;101809.84;;;22.36;97.29
30584;BME280;17357;59.404;18.414;2022-10-12T01:23:06;101815.09;;;22.37;96.71
30584;BME280;17357;59.404;18.414;2022-10-12T01:34:23;101821.97;;;22.36;96.49
30584;BME280;17357;59.404;18.414;2022-10-12T01:36:53;101818.19;;;22.32;96.02
30584;BME280;17357;59.404;18.414;2022-10-12T01:39:31;101817.75;;;22.30;95.69
30584;BME280;17357;59.404;18.414;2022-10-12T01:42:05;101827.16;;;22.34;95.42
30584;BME280;17357;59.404;18.414;2022-10-12T01:44:32;101824.78;;;22.36;95.85
30584;BME280;17357;59.404;18.414;2022-10-12T01:46:57;101820.66;;;22.34;95.78
30584;BME280;17357;59.404;18.414;2022-10-12T01:49:28;101821.84;;;22.33;96.03
30584;BME280;17357;59.404;18.414;2022-10-12T01:57:04;101824.59;;;22.29;96.25
30584;BME280;17357;59.404;18.414;2022-10-12T02:08:11;101831.75;;;22.27;96.59
30584;BME280;17357;59.404;18.414;2022-10-12T02:10:54;101835.75;;;22.26;96.54
30584;BME280;17357;59.404;18.414;2022-10-12T02:13:23;101846.00;;;22.30;96.38
30584;BME280;17357;59.404;18.414;2022-10-12T02:15:52;101838.44;;;22.34;96.52
30584;BME280;17357;59.404;18.414;2022-10-12T02:18:18;101842.09;;;22.35;96.93
30584;BME280;17357;59.404;18.414;2022-10-12T02:20:46;101839.28;;;22.35;97.11
30584;BME280;17357;59.404;18.414;2022-10-12T02:23:13;101845.28;;;22.33;97.41
30584;BME280;17357;59.404;18.414;2022-10-12T02:25:40;101853.06;;;22.36;97.66
30584;BME280;17357;59.404;18.414;2022-10-12T02:28:09;101846.47;;;22.32;97.96
30584;BME280;17357;59.404;18.414;2022-10-12T02:30:41;101847.19;;;22.29;97.83
30584;BME280;17357;59.404;18.414;2022-10-12T02:33:16;101853.28;;;22.31;97.72
30584;BME280;17357;59.404;18.414;2022-10-12T02:36:00;101864.16;;;22.29;97.59
30584;BME280;17357;59.404;18.414;2022-10-12T02:38:34;101854.50;;;22.30;97.68
30584;BME280;17357;59.404;18.414;2022-10-12T02:41:05;101863.41;;;22.32;97.42
30584;BME280;17357;59.404;18.414;2022-10-12T02:46:00;101861.31;;;22.29;97.47
30584;BME280;17357;59.404;18.414;2022-10-12T02:48:28;101857.31;;;22.30;97.34
30584;BME280;17357;59.404;18.414;2022-10-12T02:50:56;101854.94;;;22.32;97.16
30584;BME280;17357;59.404;18.414;2022-10-12T02:53:23;101860.84;;;22.27;97.23
30584;BME280;17357;59.404;18.414;2022-10-12T02:55:54;101865.78;;;22.30;97.34
30584;BME280;17357;59.404;18.414;2022-10-12T02:58:23;101865.78;;;22.30;97.16
30584;BME280;17357;59.404;18.414;2022-10-12T03:00:49;101815.72;;;22.31;97.40
30584;BME280;17357;59.404;18.414;2022-10-12T03:03:14;101818.19;;;22.32;97.53
30584;BME280;17357;59.404;18.414;2022-10-12T03:05:40;101806.81;;;22.29;97.28
30584;BME280;17357;59.404;18.414;2022-10-12T03:08:05;101884.38;;;22.31;97.92
30584;BME280;17357;59.404;18.414;2022-10-12T03:10:30;101855.28;;;22.31;97.61
30584;BME280;17357;59.404;18.414;2022-10-12T03:12:56;101864.16;;;22.29;97.72
30584;BME280;17357;59.404;18.414;2022-10-12T03:15:21;101876.38;;;22.33;97.57
30584;BME280;17357;59.404;18.414;2022-10-12T03:17:46;101873.91;;;22.32;98.03
30584;BME280;17357;59.404;18.414;2022-10-12T03:20:12;101874.72;;;22.32;97.96
30584;BME280;17357;59.404;18.414;2022-10-12T03:22:37;101878.63;;;22.28;98.27
30584;BME280;17357;59.404;18.414;2022-10-12T03:25:03;101877.09;;;22.30;98.70
30584;BME280;17357;59.404;18.414;2022-10-12T03:27:28;101879.09;;;22.30;98.60
30584;BME280;17357;59.404;18.414;2022-10-12T03:29:54;101876.16;;;22.26;98.72
30584;BME280;17357;59.404;18.414;2022-10-12T03:32:19;101866.50;;;22.27;98.37
30584;BME280;17357;59.404;18.414;2022-10-12T03:34:44;101856.13;;;22.31;98.84
30584;BME280;17357;59.404;18.414;2022-10-12T03:37:10;101852.94;;;22.33;99.10
30584;BME280;17357;59.404;18.414;2022-10-12T03:39:35;101857.66;;;22.29;98.99
30584;BME280;17357;59.404;18.414;2022-10-12T03:42:00;101856.84;;;22.28;99.46
30584;BME280;17357;59.404;18.414;2022-10-12T03:44:26;101859.69;;;22.28;99.23
30584;BME280;17357;59.404;18.414;2022-10-12T03:46:51;101863.66;;;22.27;98.80
30584;BME280;17357;59.404;18.414;2022-10-12T03:49:16;101862.03;;;22.26;98.74
30584;BME280;17357;59.404;18.414;2022-10-12T03:51:42;101862.50;;;22.28;99.00
30584;BME280;17357;59.404;18.414;2022-10-12T03:54:07;101857.31;;;22.30;98.89
30584;BME280;17357;59.404;18.414;2022-10-12T03:56:33;101860.38;;;22.25;98.88
30584;BME280;17357;59.404;18.414;2022-10-12T03:58:58;101874.63;;;22.29;98.35
30584;BME280;17357;59.404;18.414;2022-10-12T04:01:24;101876.97;;;22.27;98.44
30584;BME280;17357;59.404;18.414;2022-10-12T04:03:49;101874.50;;;22.25;99.04
30584;BME280;17357;59.404;18.414;2022-10-12T04:06:15;101886.72;;;22.41;99.18
30584;BME280;17357;59.404;18.414;2022-10-12T04:08:41;101885.03;;;22.52;99.56
30584;BME280;17357;59.404;18.414;2022-10-12T04:11:06;101879.75;;;22.67;99.14
30584;BME280;17357;59.404;18.414;2022-10-12T04:13:31;101872.91;;;22.80;99.38
30584;BME280;17357;59.404;18.414;2022-10-12T04:16:01;101871.66;;;22.93;99.49
30584;BME280;17357;59.404;18.414;2022-10-12T04:18:27;101873.13;;;23.03;99.08
30584;BME280;17357;59.404;18.414;2022-10-12T04:20:52;101878.22;;;22.97;98.76
30584;BME280;17357;59.404;18.414;2022-10-12T04:23:17;101883.59;;;23.02;99.33
30584;BME280;17357;59.404;18.414;2022-10-12T04:25:43;101893.59;;;23.12;100.00
30584;BME280;17357;59.404;18.414;2022-10-12T04:28:08;101888.47;;;23.17;100.00
30584;BME280;17357;59.404;18.414;2022-10-12T04:30:34;101894.31;;;23.24;100.00
30584;BME280;17357;59.404;18.414;2022-10-12T04:32:59;101892.84;;;23.30;100.00
30584;BME280;17357;59.404;18.414;2022-10-12T04:35:24;101891.50;;;23.40;100.00
30584;BME280;17357;59.404;18.414;2022-10-12T04:37:50;101890.16;;;23.50;100.00
30584;BME280;17357;59.404;18.414;2022-10-12T04:40:15;101904.84;;;23.55;100.00
30584;BME280;17357;59.404;18.414;2022-10-12T04:42:40;101904.22;;;23.62;100.00
30584;BME280;17357;59.404;18.414;2022-10-12T04:45:06;101915.19;;;23.63;100.00
30584;BME280;17357;59.404;18.414;2022-10-12T04:47:33;101912.13;;;23.72;100.00
30584;BME280;17357;59.404;18.414;2022-10-12T04:49:59;101906.19;;;23.77;100.00
30584;BME280;17357;59.404;18.414;2022-10-12T04:52:24;101899.81;;;23.80;100.00
30584;BME280;17357;59.404;18.414;2022-10-12T04:54:49;101901.06;;;23.83;100.00
30584;BME280;17357;59.404;18.414;2022-10-12T04:57:15;101905.53;;;23.84;100.00
30584;BME280;17357;59.404;18.414;2022-10-12T04:59:40;101911.84;;;23.93;100.00
30584;BME280;17357;59.404;18.414;2022-10-12T05:02:05;101918.88;;;23.99;100.00
30584;BME280;17357;59.404;18.414;2022-10-12T05:04:31;101930.09;;;23.95;100.00
30584;BME280;17357;59.404;18.414;2022-10-12T05:06:56;101920.50;;;24.00;100.00
30584;BME280;17357;59.404;18.414;2022-10-12T05:09:22;101916.47;;;24.01;100.00
30584;BME280;17357;59.404;18.414;2022-10-12T05:11:47;101918.19;;;24.05;100.00
30584;BME280;17357;59.404;18.414;2022-10-12T05:14:12;101913.81;;;24.08;100.00
30584;BME280;17357;59.404;18.414;2022-10-12T05:16:38;101909.44;;;24.10;100.00
30584;BME280;17357;59.404;18.414;2022-10-12T05:19:03;101918.81;;;24.14;100.00
30584;BME280;17357;59.404;18.414;2022-10-12T05:21:29;101918.81;;;24.14;100.00
30584;BME280;17357;59.404;18.414;2022-10-12T05:23:55;101927.78;;;24.17;100.00
30584;BME280;17357;59.404;18.414;2022-10-12T05:26:20;101924.84;;;24.13;100.00
30584;BME280;17357;59.404;18.414;2022-10-12T05:28:45;101925.75;;;24.17;100.00
30584;BME280;17357;59.404;18.414;2022-10-12T05:31:11;101923.41;;;24.19;100.00
30584;BME280;17357;59.404;18.414;2022-10-12T05:33:36;101929.19;;;24.23;100.00
30584;BME280;17357;59.404;18.414;2022-10-12T05:36:02;101922.75;;;24.26;100.00
30584;BME280;17357;59.404;18.414;2022-10-12T05:38:27;101925.13;;;24.24;100.00
30584;BME280;17357;59.404;18.414;2022-10-12T05:40:53;101921.56;;;24.27;100.00
30584;BME280;17357;59.404;18.414;2022-10-12T05:43:18;101932.16;;;24.30;100.00
30584;BME280;17357;59.404;18.414;2022-10-12T05:45:43;101926.19;;;24.35;100.00
30584;BME280;17357;59.404;18.414;2022-10-12T05:48:09;101938.00;;;24.37;100.00
30584;BME280;17357;59.404;18.414;2022-10-12T05:50:34;101943.13;;;24.31;100.00
30584;BME280;17357;59.404;18.414;2022-10-12T05:53:00;101940.81;;;24.37;100.00
30584;BME280;17357;59.404;18.414;2022-10-12T05:55:25;101937.09;;;24.33;100.00
30584;BME280;17357;59.404;18.414;2022-10-12T05:57:50;101940.97;;;24.09;97.26
30584;BME280;17357;59.404;18.414;2022-10-12T06:00:16;101949.41;;;23.90;94.48
30584;BME280;17357;59.404;18.414;2022-10-12T06:02:41;101946.31;;;23.79;92.47
30584;BME280;17357;59.404;18.414;2022-10-12T06:05:07;101954.91;;;23.67;91.58
30584;BME280;17357;59.404;18.414;2022-10-12T06:07:32;101953.81;;;23.56;90.94
30584;BME280;17357;59.404;18.414;2022-10-12T06:09:58;101955.50;;;23.45;88.60
30584;BME280;17357;59.404;18.414;2022-10-12T06:12:24;101962.63;;;23.39;88.61
30584;BME280;17357;59.404;18.414;2022-10-12T06:14:51;101961.25;;;23.32;88.72
30584;BME280;17357;59.404;18.414;2022-10-12T06:17:16;101955.88;;;23.27;88.58
30584;BME280;17357;59.404;18.414;2022-10-12T06:19:42;101961.53;;;23.27;88.75
30584;BME280;17357;59.404;18.414;2022-10-12T06:22:07;101967.91;;;23.24;88.50
30584;BME280;17357;59.404;18.414;2022-10-12T06:24:32;101956.97;;;23.23;88.48
30584;BME280;17357;59.404;18.414;2022-10-12T06:26:58;101961.31;;;23.20;88.49
30584;BME280;17357;59.404;18.414;2022-10-12T06:29:23;101957.31;;;23.21;88.62
30584;BME280;17357;59.404;18.414;2022-10-12T06:31:50;101955.41;;;23.25;88.36
30584;BME280;17357;59.404;18.414;2022-10-12T06:34:15;101959.31;;;23.21;88.37
30584;BME280;17357;59.404;18.414;2022-10-12T06:36:41;101964.25;;;23.24;88.71
30584;BME280;17357;59.404;18.414;2022-10-12T06:39:07;101961.31;;;23.20;88.85
30584;BME280;17357;59.404;18.414;2022-10-12T06:41:33;101958.84;;;23.19;88.27
30584;BME280;17357;59.404;18.414;2022-10-12T06:43:58;101962.88;;;23.18;88.59
30584;BME280;17357;59.404;18.414;2022-10-12T06:46:23;101954.00;;;23.19;88.41
30584;BME280;17357;59.404;18.414;2022-10-12T06:48:49;101963.69;;;23.18;88.16
30584;BME280;17357;59.404;18.414;2022-10-12T06:51:14;101955.94;;;23.15;88.55
30584;BME280;17357;59.404;18.414;2022-10-12T06:53:39;101958.84;;;23.19;88.74
30584;BME280;17357;59.404;18.414;2022-10-12T06:56:06;101969.34;;;23.18;88.51
30584;BME280;17357;59.404;18.414;2022-10-12T06:58:32;101963.69;;;23.18;88.51
30584;BME280;17357;59.404;18.414;2022-10-12T07:01:00;101968.06;;;23.16;88.61
30584;BME280;17357;59.404;18.414;2022-10-12T07:03:26;101964.91;;;23.17;88.76
30584;BME280;17357;59.404;18.414;2022-10-12T07:05:51;101969.25;;;23.15;88.78
30584;BME280;17357;59.404;18.414;2022-10-12T07:08:16;101971.38;;;23.18;88.79
30584;BME280;17357;59.404;18.414;2022-10-12T07:10:42;101969.34;;;23.18;88.76
30584;BME280;17357;59.404;18.414;2022-10-12T07:13:07;101968.91;;;23.16;89.17
30584;BME280;17357;59.404;18.414;2022-10-12T07:15:32;101967.81;;;23.21;88.96
30584;BME280;17357;59.404;18.414;2022-10-12T07:17:58;101966.50;;;23.18;87.89
30584;BME280;17357;59.404;18.414;2022-10-12T07:20:23;101966.78;;;23.13;87.65
30584;BME280;17357;59.404;18.414;2022-10-12T07:22:48;101981.50;;;23.19;87.62
30584;BME280;17357;59.404;18.414;2022-10-12T07:25:14;101973.69;;;23.28;88.08
30584;BME280;17357;59.404;18.414;2022-10-12T07:27:39;101973.69;;;23.28;90.66
30584;BME280;17357;59.404;18.414;2022-10-12T07:30:05;101963.06;;;23.25;89.35
30584;BME280;17357;59.404;18.414;2022-10-12T07:32:31;101984.88;;;23.24;88.74
30584;BME280;17357;59.404;18.414;2022-10-12T07:34:56;101981.13;;;23.20;87.81
30584;BME280;17357;59.404;18.414;2022-10-12T07:37:21;101989.34;;;23.25;88.56
30584;BME280;17357;59.404;18.414;2022-10-12T07:39:47;101983.25;;;23.23;87.07
30584;BME280;17357;59.404;18.414;2022-10-12T07:42:13;101983.97;;;23.36;88.27
30584;BME280;17357;59.404;18.414;2022-10-12T07:44:39;101991.03;;;23.42;89.03
30584;BME280;17357;59.404;18.414;2022-10-12T07:47:04;101999.16;;;23.44;88.99
30584;BME280;17357;59.404;18.414;2022-10-12T07:49:29;101998.22;;;23.52;93.40
30584;BME280;17357;59.404;18.414;2022-10-12T07:51:55;102003.66;;;23.45;90.31
30584;BME280;17357;59.404;18.414;2022-10-12T07:54:20;101985.19;;;23.35;90.15
30584;BME280;17357;59.404;18.414;2022-10-12T07:56:45;101998.63;;;23.38;90.35
30584;BME280;17357;59.404;18.414;2022-10-12T07:59:11;102002.53;;;23.33;90.85
30584;BME280;17357;59.404;18.414;2022-10-12T08:01:36;101990.75;;;23.31;91.22
30584;BME280;17357;59.404;18.414;2022-10-12T08:04:02;101995.59;;;23.31;91.58
30584;BME280;17357;59.404;18.414;2022-10-12T08:06:30;101997.16;;;23.28;91.39
30584;BME280;17357;59.404;18.414;2022-10-12T08:08:58;101997.22;;;23.32;91.43
30584;BME280;17357;59.404;18.414;2022-10-12T08:11:23;101991.09;;;23.30;91.15
30584;BME280;17357;59.404;18.414;2022-10-12T08:13:49;101990.66;;;23.28;90.98
30584;BME280;17357;59.404;18.414;2022-10-12T08:16:18;101995.38;;;23.24;90.57
30584;BME280;17357;59.404;18.414;2022-10-12T08:18:44;102003.50;;;23.25;90.21
30584;BME280;17357;59.404;18.414;2022-10-12T08:21:11;102007.16;;;23.26;89.88
30584;BME280;17357;59.404;18.414;2022-10-12T08:23:37;101999.84;;;23.25;89.77
30584;BME280;17357;59.404;18.414;2022-10-12T08:26:04;102002.34;;;23.26;90.09
30584;BME280;17357;59.404;18.414;2022-10-12T08:28:30;101997.84;;;23.25;89.86
30584;BME280;17357;59.404;18.414;2022-10-12T08:30:55;101994.59;;;23.23;89.87
30584;BME280;17357;59.404;18.414;2022-10-12T08:33:21;102004.69;;;23.24;89.85
30584;BME280;17357;59.404;18.414;2022-10-12T08:35:46;101996.59;;;23.23;89.82
30584;BME280;17357;59.404;18.414;2022-10-12T08:38:13;101991.63;;;23.20;89.48
30584;BME280;17357;59.404;18.414;2022-10-12T08:41:00;102003.31;;;23.18;89.22
30584;BME280;17357;59.404;18.414;2022-10-12T08:46:32;102006.59;;;23.20;89.58
30584;BME280;17357;59.404;18.414;2022-10-12T08:49:03;101996.94;;;23.21;89.46
30584;BME280;17357;59.404;18.414;2022-10-12T08:51:43;102003.78;;;23.20;89.39
30584;BME280;17357;59.404;18.414;2022-10-12T08:54:14;102004.25;;;23.22;89.20
30584;BME280;17357;59.404;18.414;2022-10-12T08:56:40;101999.03;;;23.24;89.27
30584;BME280;17357;59.404;18.414;2022-10-12T08:59:12;102000.13;;;23.20;89.54
30584;BME280;17357;59.404;18.414;2022-10-12T09:06:58;102010.34;;;23.24;89.85
30584;BME280;17357;59.404;18.414;2022-10-12T09:09:41;102010.34;;;23.24;90.10
30584;BME280;17357;59.404;18.414;2022-10-12T09:15:28;102014.63;;;23.18;90.15
30584;BME280;17357;59.404;18.414;2022-10-12T09:17:56;102005.06;;;23.23;90.23
30584;BME280;17357;59.404;18.414;2022-10-12T09:22:54;102018.03;;;23.24;90.45
30584;BME280;17357;59.404;18.414;2022-10-12T09:25:25;102009.19;;;23.25;90.44
30584;BME280;17357;59.404;18.414;2022-10-12T09:27:51;102008.00;;;23.26;90.52
30584;BME280;17357;59.404;18.414;2022-10-12T09:30:19;102012.84;;;23.26;90.49
30584;BME280;17357;59.404;18.414;2022-10-12T09:35:26;102016.50;;;23.26;90.77
30584;BME280;17357;59.404;18.414;2022-10-12T09:37:52;102011.31;;;23.28;90.72
30584;BME280;17357;59.404;18.414;2022-10-12T09:40:29;102011.56;;;23.23;90.35
30584;BME280;17357;59.404;18.414;2022-10-12T09:42:58;102020.50;;;23.25;90.94
30584;BME280;17357;59.404;18.414;2022-10-12T09:45:24;102020.97;;;23.27;90.65
30584;BME280;17357;59.404;18.414;2022-10-12T09:48:20;102013.09;;;23.21;90.68
30584;BME280;17357;59.404;18.414;2022-10-12T09:50:57;102023.69;;;23.24;91.02
30584;BME280;17357;59.404;18.414;2022-10-12T09:53:29;102017.22;;;23.23;90.75
30584;BME280;17357;59.404;18.414;2022-10-12T09:56:03;102024.97;;;23.26;90.58
30584;BME280;17357;59.404;18.414;2022-10-12T09:58:36;102019.66;;;23.25;90.81
30584;BME280;17357;59.404;18.414;2022-10-12T10:01:25;102030.16;;;23.24;91.05
30584;BME280;17357;59.404;18.414;2022-10-12T10:06:38;102029.94;;;23.29;91.45
30584;BME280;17357;59.404;18.414;2022-10-12T10:09:04;102032.28;;;23.27;91.79
30584;BME280;17357;59.404;18.414;2022-10-12T10:11:31;102029.56;;;23.31;92.22
30584;BME280;17357;59.404;18.414;2022-10-12T10:13:58;102036.78;;;23.28;93.10
30584;BME280;17357;59.404;18.414;2022-10-12T10:16:25;102036.31;;;23.42;94.59
30584;BME280;17357;59.404;18.414;2022-10-12T10:21:26;102021.34;;;23.42;93.75
30584;BME280;17357;59.404;18.414;2022-10-12T10:23:56;102026.44;;;23.36;92.60
30584;BME280;17357;59.404;18.414;2022-10-12T10:26:23;102029.41;;;23.40;91.86
30584;BME280;17357;59.404;18.414;2022-10-12T10:31:40;102031.28;;;23.35;90.18
30584;BME280;17357;59.404;18.414;2022-10-12T10:34:11;102041.69;;;23.31;89.66
30584;BME280;17357;59.404;18.414;2022-10-12T10:36:42;102034.03;;;23.32;89.36
30584;BME280;17357;59.404;18.414;2022-10-12T10:39:17;102040.44;;;23.29;89.12
30584;BME280;17357;59.404;18.414;2022-10-12T10:41:43;102038.44;;;23.29;89.67
30584;BME280;17357;59.404;18.414;2022-10-12T10:44:29;102032.91;;;23.21;89.12
30584;BME280;17357;59.404;18.414;2022-10-12T10:46:59;102044.09;;;23.29;89.52
30584;BME280;17357;59.404;18.414;2022-10-12T10:49:38;102029.34;;;23.24;89.25
30584;BME280;17357;59.404;18.414;2022-10-12T10:52:06;102030.28;;;23.28;89.71
30584;BME280;17357;59.404;18.414;2022-10-12T10:54:35;102024.16;;;23.26;89.58
30584;BME280;17357;59.404;18.414;2022-10-12T10:57:17;102033.47;;;23.26;88.95
30584;BME280;17357;59.404;18.414;2022-10-12T10:59:56;102042.31;;;23.25;88.89
30584;BME280;17357;59.404;18.414;2022-10-12T11:02:37;102030.56;;;23.23;88.70
30584;BME280;17357;59.404;18.414;2022-10-12T11:05:25;102028.56;;;23.23;88.80
30584;BME280;17357;59.404;18.414;2022-10-12T11:07:53;102025.53;;;23.32;88.83
30584;BME280;17357;59.404;18.414;2022-10-12T11:13:20;102027.72;;;23.23;88.98
30584;BME280;17357;59.404;18.414;2022-10-12T11:18:41;102037.03;;;23.23;89.00
30584;BME280;17357;59.404;18.414;2022-10-12T11:21:21;102026.41;;;23.20;88.61
30584;BME280;17357;59.404;18.414;2022-10-12T11:23:55;102030.06;;;23.21;88.70
30584;BME280;17357;59.404;18.414;2022-10-12T11:26:30;102021.13;;;23.19;89.23
30584;BME280;17357;59.404;18.414;2022-10-12T11:28:59;102023.69;;;23.24;89.30
30584;BME280;17357;59.404;18.414;2022-10-12T11:31:31;102017.56;;;23.22;88.97
30584;BME280;17357;59.404;18.414;2022-10-12T11:33:58;102027.34;;;23.24;89.60
30584;BME280;17357;59.404;18.414;2022-10-12T11:36:29;102024.50;;;23.24;90.08
30584;BME280;17357;59.404;18.414;2022-10-12T11:39:03;102022.06;;;23.23;89.36
30584;BME280;17357;59.404;18.414;2022-10-12T11:41:47;102024.41;;;23.21;89.33
30584;BME280;17357;59.404;18.414;2022-10-12T11:44:21;102021.94;;;23.19;89.59
30584;BME280;17357;59.404;18.414;2022-10-12T11:52:45;102031.00;;;23.25;90.02
30584;BME280;17357;59.404;18.414;2022-10-12T11:58:21;102028.06;;;23.21;90.93
30584;BME280;17357;59.404;18.414;2022-10-12T12:08:57;102030.78;;;23.46;92.73
30584;BME280;17357;59.404;18.414;2022-10-12T12:11:28;102034.31;;;23.43;92.27
30584;BME280;17357;59.404;18.414;2022-10-12T12:17:12;102026.44;;;23.36;92.40
30584;BME280;17357;59.404;18.414;2022-10-12T12:19:41;102029.50;;;23.43;92.48
30584;BME280;17357;59.404;18.414;2022-10-12T12:24:35;102027.84;;;23.42;92.22
30584;BME280;17357;59.404;18.414;2022-10-12T12:27:01;102024.84;;;23.35;92.14
30584;BME280;17357;59.404;18.414;2022-10-12T12:29:26;102028.09;;;23.37;91.60
30584;BME280;17357;59.404;18.414;2022-10-12T12:31:56;102023.53;;;23.32;90.77
30584;BME280;17357;59.404;18.414;2022-10-12T12:34:23;102029.66;;;23.34;90.92
30584;BME280;17357;59.404;18.414;2022-10-12T12:36:49;102018.97;;;23.28;90.14
30584;BME280;17357;59.404;18.414;2022-10-12T12:39:30;102022.63;;;23.28;89.90
30584;BME280;17357;59.404;18.414;2022-10-12T12:42:03;102026.38;;;23.32;90.38
30584;BME280;17357;59.404;18.414;2022-10-12T13:00:18;102020.69;;;23.32;89.49
30584;BME280;17357;59.404;18.414;2022-10-12T13:08:29;102020.69;;;23.32;89.52
30584;BME280;17357;59.404;18.414;2022-10-12T13:14:19;102014.13;;;23.28;88.68
30584;BME280;17357;59.404;18.414;2022-10-12T13:19:34;102020.63;;;23.29;88.79
30584;BME280;17357;59.404;18.414;2022-10-12T13:22:03;102022.63;;;23.28;88.24
30584;BME280;17357;59.404;18.414;2022-10-12T13:24:46;102018.41;;;23.22;88.52
30584;BME280;17357;59.404;18.414;2022-10-12T13:27:24;102024.97;;;23.26;88.74
30584;BME280;17357;59.404;18.414;2022-10-12T13:30:05;102026.16;;;23.25;89.07
30584;BME280;17357;59.404;18.414;2022-10-12T13:32:52;102022.06;;;23.23;88.95
30584;BME280;17357;59.404;18.414;2022-10-12T13:35:33;102033.47;;;23.26;88.47
30584;BME280;17357;59.404;18.414;2022-10-12T13:38:04;102032.00;;;23.17;89.13
30584;BME280;17357;59.404;18.414;2022-10-12T13:40:35;102029.81;;;23.26;89.30
30584;BME280;17357;59.404;18.414;2022-10-12T13:45:52;102032.22;;;23.40;92.06
30584;BME280;17357;59.404;18.414;2022-10-12T13:48:19;102018.03;;;23.52;93.61
30584;BME280;17357;59.404;18.414;2022-10-12T13:53:16;102028.44;;;23.48;92.29
30584;BME280;17357;59.404;18.414;2022-10-12T13:55:42;102018.75;;;23.49;91.50
30584;BME280;17357;59.404;18.414;2022-10-12T13:58:21;102021.81;;;23.44;90.39
30584;BME280;17357;59.404;18.414;2022-10-12T14:00:48;102028.38;;;23.32;90.58
30584;BME280;17357;59.404;18.414;2022-10-12T14:03:13;102025.00;;;23.42;90.39
30584;BME280;17357;59.404;18.414;2022-10-12T14:05:44;102031.88;;;23.41;90.02
30584;BME280;17357;59.404;18.414;2022-10-12T14:08:13;102023.81;;;23.27;90.05
30584;BME280;17357;59.404;18.414;2022-10-12T14:10:40;102032.22;;;23.40;89.85
30584;BME280;17357;59.404;18.414;2022-10-12T14:13:07;102029.84;;;23.42;89.70
30584;BME280;17357;59.404;18.414;2022-10-12T14:15:39;102030.59;;;23.39;89.23
30584;BME280;17357;59.404;18.414;2022-10-12T14:18:34;102025.53;;;23.32;89.35
30584;BME280;17357;59.404;18.414;2022-10-12T14:21:23;102032.38;;;23.31;89.08
30584;BME280;17357;59.404;18.414;2022-10-12T14:24:07;102032.75;;;23.29;89.54
30584;BME280;17357;59.404;18.414;2022-10-12T14:26:39;102024.84;;;23.35;90.00
30584;BME280;17357;59.404;18.414;2022-10-12T14:32:02;102032.50;;;23.34;90.63
30584;BME280;17357;59.404;18.414;2022-10-12T14:39:29;102035.88;;;23.40;89.09
30584;BME280;17357;59.404;18.414;2022-10-12T14:41:55;102029.41;;;23.40;89.96
30584;BME280;17357;59.404;18.414;2022-10-12T14:44:22;102031.06;;;23.41;90.07
30584;BME280;17357;59.404;18.414;2022-10-12T14:47:12;102033.69;;;23.33;89.80
30584;BME280;17357;59.404;18.414;2022-10-12T14:49:42;102036.94;;;23.35;89.97
30584;BME280;17357;59.404;18.414;2022-10-12T14:54:53;102031.19;;;23.32;89.36